createdAt,value
2022-09-15T00:00:42.587Z,13.41
2022-09-15T00:03:28.495Z,13.36
2022-09-15T00:06:09.885Z,13.31
2022-09-15T00:09:07.609Z,13.28
2022-09-15T00:11:42.546Z,13.27
2022-09-15T00:14:29.300Z,13.23
2022-09-15T00:17:07.868Z,13.19
2022-09-15T00:19:46.397Z,13.17
2022-09-15T00:22:31.272Z,13.14
2022-09-15T00:25:18.896Z,13.13
2022-09-15T00:27:49.722Z,13.11
2022-09-15T00:30:24.867Z,13.10
2022-09-15T00:33:00.828Z,13.11
2022-09-15T00:35:35.394Z,13.12
2022-09-15T00:38:16.828Z,13.12
2022-09-15T00:40:59.650Z,13.10
2022-09-15T00:43:58.617Z,13.08
2022-09-15T00:46:58.739Z,13.07
2022-09-15T00:49:40.741Z,13.08
2022-09-15T00:52:16.012Z,13.09
2022-09-15T00:55:13.556Z,13.10
2022-09-15T00:57:50.788Z,13.14
2022-09-15T01:00:26.719Z,13.17
2022-09-15T01:03:00.371Z,13.19
2022-09-15T01:05:33.823Z,13.23
2022-09-15T01:08:10.533Z,13.25
2022-09-15T01:10:47.826Z,13.30
2022-09-15T01:13:18.230Z,13.37
2022-09-15T01:15:58.195Z,13.40
2022-09-15T01:18:42.936Z,13.45
2022-09-15T01:21:27.724Z,13.49
2022-09-15T01:24:31.503Z,13.50
2022-09-15T01:27:37.584Z,13.50
2022-09-15T01:30:10.313Z,13.49
2022-09-15T01:33:09.683Z,13.45
2022-09-15T01:35:54.649Z,13.44
2022-09-15T01:38:31.590Z,13.41
2022-09-15T01:41:06.728Z,13.40
2022-09-15T01:43:42.109Z,13.38
2022-09-15T01:46:17.034Z,13.41
2022-09-15T01:48:48.418Z,13.65
2022-09-15T01:51:21.843Z,13.84
2022-09-15T01:53:55.216Z,13.95
2022-09-15T01:56:25.722Z,14.02
2022-09-15T01:58:59.782Z,14.10
2022-09-15T02:01:40.862Z,14.07
2022-09-15T02:04:20.554Z,14.07
2022-09-15T02:06:56.454Z,14.01
2022-09-15T02:09:39.512Z,13.96
2022-09-15T02:12:20.831Z,13.94
2022-09-15T02:15:06.010Z,13.91
2022-09-15T02:17:42.710Z,13.91
2022-09-15T02:20:20.941Z,13.89
2022-09-15T02:22:54.742Z,13.85
2022-09-15T02:25:32.897Z,13.83
2022-09-15T02:28:05.839Z,13.83
2022-09-15T02:30:41.287Z,13.81
2022-09-15T02:33:17.809Z,13.82
2022-09-15T02:35:48.419Z,13.84
2022-09-15T02:38:18.441Z,13.84
2022-09-15T02:40:49.649Z,13.83
2022-09-15T02:43:20.974Z,13.83
2022-09-15T02:45:50.950Z,13.83
2022-09-15T02:48:25.418Z,13.83
2022-09-15T02:50:55.213Z,13.82
2022-09-15T02:53:27.779Z,13.79
2022-09-15T02:55:58.116Z,13.77
2022-09-15T02:58:27.926Z,13.74
2022-09-15T03:00:57.914Z,13.71
2022-09-15T03:03:30.202Z,13.70
2022-09-15T03:06:16.737Z,13.67
2022-09-15T03:08:47.782Z,13.67
2022-09-15T03:11:18.182Z,13.67
2022-09-15T03:13:48.074Z,13.68
2022-09-15T03:16:19.417Z,13.66
2022-09-15T03:18:52.313Z,13.66
2022-09-15T03:21:22.380Z,13.64
2022-09-15T03:23:52.305Z,13.64
2022-09-15T03:26:22.222Z,13.66
2022-09-15T03:28:52.026Z,13.64
2022-09-15T03:31:22.154Z,13.64
2022-09-15T03:33:56.190Z,13.61
2022-09-15T03:36:25.969Z,13.61
2022-09-15T03:38:55.756Z,13.58
2022-09-15T03:41:25.620Z,13.55
2022-09-15T03:43:55.367Z,13.50
2022-09-15T03:46:25.295Z,13.48
2022-09-15T03:48:57.831Z,13.43
2022-09-15T03:51:27.630Z,13.41
2022-09-15T03:53:58.955Z,13.41
2022-09-15T03:56:31.658Z,13.41
2022-09-15T03:59:02.407Z,13.45
2022-09-15T04:01:33.622Z,13.48
2022-09-15T04:04:07.010Z,13.49
2022-09-15T04:06:37.138Z,13.51
2022-09-15T04:09:07.841Z,13.54
2022-09-15T04:11:37.863Z,13.58
2022-09-15T04:14:07.796Z,13.59
2022-09-15T04:16:37.473Z,13.63
2022-09-15T04:19:09.802Z,13.65
2022-09-15T04:21:39.660Z,13.68
2022-09-15T04:24:09.700Z,13.69
2022-09-15T04:26:40.191Z,13.69
2022-09-15T04:29:16.499Z,13.69
2022-09-15T04:31:46.918Z,13.74
2022-09-15T04:34:19.224Z,13.75
2022-09-15T04:36:48.847Z,13.77
2022-09-15T04:39:19.691Z,13.77
2022-09-15T04:41:49.437Z,13.75
2022-09-15T04:44:19.297Z,13.78
2022-09-15T04:46:48.955Z,13.81
2022-09-15T04:49:21.342Z,13.82
2022-09-15T04:51:53.154Z,13.89
2022-09-15T04:54:23.853Z,13.97
2022-09-15T04:56:53.718Z,13.97
2022-09-15T04:59:23.520Z,13.98
2022-09-15T05:01:57.386Z,13.97
2022-09-15T05:04:29.966Z,13.97
2022-09-15T05:06:59.633Z,13.97
2022-09-15T05:09:31.023Z,13.97
2022-09-15T05:12:00.872Z,13.95
2022-09-15T05:14:31.860Z,13.91
2022-09-15T05:17:01.614Z,13.88
2022-09-15T05:19:34.271Z,13.86
2022-09-15T05:22:04.020Z,13.84
2022-09-15T05:24:34.406Z,13.81
2022-09-15T05:27:04.115Z,13.80
2022-09-15T05:29:33.880Z,13.76
2022-09-15T05:32:03.697Z,13.74
2022-09-15T05:34:36.357Z,13.74
2022-09-15T05:37:06.546Z,13.74
2022-09-15T05:39:36.170Z,13.75
2022-09-15T05:42:05.975Z,13.78
2022-09-15T05:44:35.639Z,13.80
2022-09-15T05:47:05.409Z,13.82
2022-09-15T05:49:37.757Z,13.85
2022-09-15T05:52:07.733Z,13.89
2022-09-15T05:54:38.303Z,13.93
2022-09-15T05:57:08.221Z,13.94
2022-09-15T05:59:39.356Z,13.98
2022-09-15T06:02:09.502Z,14.01
2022-09-15T06:04:41.898Z,14.03
2022-09-15T06:07:11.674Z,14.05
2022-09-15T06:09:42.513Z,14.08
2022-09-15T06:12:12.475Z,14.13
2022-09-15T06:14:44.561Z,14.15
2022-09-15T06:17:14.411Z,14.17
2022-09-15T06:19:46.582Z,14.19
2022-09-15T06:22:16.461Z,14.23
2022-09-15T06:24:46.306Z,14.26
2022-09-15T06:27:16.135Z,14.28
2022-09-15T06:29:45.832Z,14.32
2022-09-15T06:32:15.643Z,14.34
2022-09-15T06:34:47.934Z,14.40
2022-09-15T06:37:18.205Z,14.44
2022-09-15T06:39:47.911Z,14.49
2022-09-15T06:42:18.378Z,14.55
2022-09-15T06:44:47.988Z,14.60
2022-09-15T06:47:18.499Z,14.68
2022-09-15T06:49:50.893Z,14.74
2022-09-15T06:52:22.008Z,14.82
2022-09-15T06:54:53.005Z,14.91
2022-09-15T06:57:22.606Z,14.98
2022-09-15T06:59:52.182Z,15.07
2022-09-15T07:02:23.612Z,15.13
2022-09-15T07:04:56.117Z,15.21
2022-09-15T07:07:26.322Z,15.27
2022-09-15T07:09:56.032Z,15.33
2022-09-15T07:12:26.217Z,15.38
2022-09-15T07:14:58.827Z,15.41
2022-09-15T07:17:29.033Z,15.48
2022-09-15T07:20:02.306Z,15.60
2022-09-15T07:22:32.209Z,15.84
2022-09-15T07:25:02.072Z,15.79
2022-09-15T07:27:35.318Z,15.75
2022-09-15T07:30:08.722Z,15.74
2022-09-15T07:32:38.647Z,15.67
2022-09-15T07:35:12.139Z,15.65
2022-09-15T07:37:41.522Z,15.56
2022-09-15T07:40:12.338Z,15.51
2022-09-15T07:42:45.139Z,15.46
2022-09-15T07:45:15.618Z,15.47
2022-09-15T07:47:45.851Z,15.50
2022-09-15T07:50:18.696Z,15.59
2022-09-15T07:52:48.312Z,15.70
2022-09-15T07:55:21.124Z,15.75
2022-09-15T07:57:51.004Z,15.88
2022-09-15T08:00:22.232Z,15.86
2022-09-15T08:02:52.157Z,16.28
2022-09-15T08:05:28.144Z,16.39
2022-09-15T08:07:58.552Z,16.14
2022-09-15T08:10:28.890Z,16.56
2022-09-15T08:12:59.192Z,16.84
2022-09-15T08:15:29.894Z,17.18
2022-09-15T08:17:59.751Z,17.33
2022-09-15T08:20:32.325Z,17.16
2022-09-15T08:23:02.390Z,16.91
2022-09-15T08:25:33.269Z,16.61
2022-09-15T08:28:03.326Z,16.37
2022-09-15T08:30:33.514Z,16.02
2022-09-15T08:33:03.376Z,15.88
2022-09-15T08:35:36.950Z,15.90
2022-09-15T08:38:06.360Z,15.85
2022-09-15T08:40:40.134Z,15.98
2022-09-15T08:43:21.841Z,15.89
2022-09-15T08:45:57.477Z,16.19
2022-09-15T08:48:32.642Z,16.41
2022-09-15T08:51:15.582Z,16.30
2022-09-15T08:53:48.731Z,16.30
2022-09-15T08:56:22.079Z,16.45
2022-09-15T08:58:52.267Z,16.69
2022-09-15T09:01:38.845Z,16.74
2022-09-15T09:04:41.134Z,16.73
2022-09-15T09:07:26.119Z,16.70
2022-09-15T09:10:05.258Z,16.75
2022-09-15T09:12:52.666Z,16.60
2022-09-15T09:15:42.601Z,16.89
2022-09-15T09:18:42.025Z,16.72
2022-09-15T09:21:22.280Z,16.76
2022-09-15T09:24:06.687Z,16.81
2022-09-15T09:26:39.981Z,16.99
2022-09-15T09:29:18.734Z,17.16
2022-09-15T09:31:56.189Z,17.21
2022-09-15T09:34:32.143Z,17.22
2022-09-15T09:37:14.296Z,17.29
2022-09-15T09:39:47.844Z,17.46
2022-09-15T09:42:21.060Z,17.41
2022-09-15T09:44:51.161Z,17.52
2022-09-15T09:47:22.405Z,17.69
2022-09-15T09:49:52.930Z,17.86
2022-09-15T09:52:36.986Z,18.11
2022-09-15T09:55:25.079Z,18.11
2022-09-15T09:57:56.005Z,18.14
2022-09-15T10:00:38.291Z,18.17
2022-09-15T10:03:15.146Z,17.98
2022-09-15T10:05:49.421Z,17.98
2022-09-15T10:08:21.217Z,18.10
2022-09-15T10:10:59.648Z,18.26
2022-09-15T10:13:29.638Z,18.36
2022-09-15T10:16:05.834Z,18.54
2022-09-15T10:18:39.736Z,18.61
2022-09-15T10:21:12.718Z,18.60
2022-09-15T10:23:44.028Z,18.71
2022-09-15T10:26:35.046Z,18.54
2022-09-15T10:29:16.883Z,18.62
2022-09-15T10:31:48.064Z,18.61
2022-09-15T10:34:33.193Z,18.61
2022-09-15T10:37:11.717Z,18.84
2022-09-15T10:39:53.557Z,19.00
2022-09-15T10:42:40.670Z,19.00
2022-09-15T10:45:20.609Z,18.81
2022-09-15T10:48:22.073Z,18.81
2022-09-15T10:50:59.530Z,18.78
2022-09-15T10:53:45.193Z,18.64
2022-09-15T10:56:27.285Z,18.68
2022-09-15T10:59:17.398Z,18.78
2022-09-15T11:02:01.645Z,18.73
2022-09-15T11:04:56.547Z,18.48
2022-09-15T11:07:34.466Z,18.47
2022-09-15T11:10:15.995Z,18.45
2022-09-15T11:13:02.479Z,18.39
2022-09-15T11:15:57.678Z,18.24
2022-09-15T11:18:42.445Z,18.39
2022-09-15T11:21:24.900Z,18.25
2022-09-15T11:24:06.130Z,18.47
2022-09-15T11:26:44.193Z,18.43
2022-09-15T11:29:18.960Z,18.36
2022-09-15T11:31:56.995Z,18.25
2022-09-15T11:34:31.086Z,18.22
2022-09-15T11:37:07.365Z,18.32
2022-09-15T11:39:42.626Z,18.46
2022-09-15T11:42:17.523Z,18.54
2022-09-15T11:44:49.898Z,18.57
2022-09-15T11:47:31.342Z,18.28
2022-09-15T11:50:06.306Z,18.18
2022-09-15T11:52:50.934Z,18.25
2022-09-15T11:55:29.955Z,18.16
2022-09-15T11:58:16.397Z,18.25
2022-09-15T12:00:57.909Z,18.29
2022-09-15T12:03:37.743Z,18.56
2022-09-15T12:06:17.286Z,18.66
2022-09-15T12:08:54.903Z,18.60
2022-09-15T12:11:28.437Z,18.81
2022-09-15T12:13:59.686Z,18.68
2022-09-15T12:16:31.099Z,18.70
2022-09-15T12:19:09.892Z,18.65
2022-09-15T12:21:48.612Z,18.75
2022-09-15T12:24:26.421Z,18.97
2022-09-15T12:26:56.638Z,18.93
2022-09-15T12:29:36.900Z,18.78
2022-09-15T12:32:36.411Z,19.03
2022-09-15T12:35:33.371Z,19.26
2022-09-15T12:38:06.151Z,19.02
2022-09-15T12:40:38.920Z,18.81
2022-09-15T12:43:23.351Z,18.53
2022-09-15T12:45:59.810Z,18.27
2022-09-15T12:48:32.022Z,18.11
2022-09-15T12:51:05.125Z,17.72
2022-09-15T12:53:41.643Z,17.80
2022-09-15T12:56:24.811Z,17.70
2022-09-15T12:59:01.308Z,17.64
2022-09-15T13:01:53.874Z,17.53
2022-09-15T13:04:57.694Z,17.66
2022-09-15T13:08:05.350Z,17.62
2022-09-15T13:10:41.704Z,17.48
2022-09-15T13:13:23.805Z,17.44
2022-09-15T13:15:57.772Z,17.33
2022-09-15T13:18:32.663Z,17.52
2022-09-15T13:21:08.922Z,17.37
2022-09-15T13:23:46.215Z,17.19
2022-09-15T13:26:24.901Z,16.99
2022-09-15T13:28:58.984Z,17.10
2022-09-15T13:31:39.044Z,16.91
2022-09-15T13:38:16.872Z,16.95
2022-09-15T13:41:33.249Z,17.18
2022-09-15T13:44:21.334Z,17.12
2022-09-15T13:47:07.376Z,17.22
2022-09-15T13:49:54.403Z,17.28
2022-09-15T13:52:46.005Z,17.47
2022-09-15T13:55:29.147Z,17.35
2022-09-15T14:01:08.017Z,17.44
2022-09-15T14:03:45.023Z,17.49
2022-09-15T14:06:22.475Z,17.42
2022-09-15T14:08:56.534Z,17.44
2022-09-15T14:11:31.233Z,17.36
2022-09-15T14:14:04.387Z,17.19
2022-09-15T14:16:39.395Z,17.17
2022-09-15T14:19:33.580Z,17.04
2022-09-15T14:22:03.955Z,16.86
2022-09-15T14:24:35.407Z,16.83
2022-09-15T14:27:14.426Z,16.72
2022-09-15T14:29:48.481Z,16.55
2022-09-15T14:32:21.650Z,16.23
2022-09-15T14:34:51.869Z,16.19
2022-09-15T14:37:24.563Z,16.20
2022-09-15T14:39:56.726Z,16.21
2022-09-15T14:42:31.437Z,16.25
2022-09-15T14:48:11.045Z,16.47
2022-09-15T14:51:01.229Z,16.50
2022-09-15T14:53:35.609Z,16.49
2022-09-15T14:56:11.689Z,16.51
2022-09-15T14:58:46.509Z,16.45
2022-09-15T15:01:23.176Z,16.42
2022-09-15T15:04:07.036Z,16.32
2022-09-15T15:06:38.714Z,16.23
2022-09-15T15:09:13.108Z,16.24
2022-09-15T15:11:44.205Z,16.35
2022-09-15T15:14:16.655Z,16.36
2022-09-15T15:16:54.522Z,16.38
2022-09-15T15:19:37.911Z,16.50
2022-09-15T15:22:18.646Z,16.52
2022-09-15T15:24:51.433Z,16.55
2022-09-15T15:27:43.458Z,16.63
2022-09-15T15:30:43.120Z,16.59
2022-09-15T15:33:21.247Z,16.73
2022-09-15T15:36:08.294Z,16.81
2022-09-15T15:38:47.124Z,16.79
2022-09-15T15:41:26.355Z,16.67
2022-09-15T15:44:03.925Z,16.67
2022-09-15T15:46:59.154Z,16.61
2022-09-15T15:49:31.805Z,16.66
2022-09-15T15:52:06.074Z,16.64
2022-09-15T15:54:37.306Z,16.72
2022-09-15T15:57:25.165Z,16.52
2022-09-15T16:00:00.820Z,16.31
2022-09-15T16:02:31.099Z,16.27
2022-09-15T16:05:01.054Z,16.14
2022-09-15T16:07:35.106Z,16.12
2022-09-15T16:10:06.547Z,16.09
2022-09-15T16:12:46.317Z,16.06
2022-09-15T16:15:18.880Z,16.13
2022-09-15T16:17:49.060Z,16.09
2022-09-15T16:20:19.960Z,16.02
2022-09-15T16:22:52.230Z,16.03
2022-09-15T16:25:30.393Z,15.98
2022-09-15T16:27:59.996Z,15.93
2022-09-15T16:30:29.873Z,15.80
2022-09-15T16:32:59.751Z,15.72
2022-09-15T16:35:43.109Z,15.72
2022-09-15T16:38:16.681Z,15.68
2022-09-15T16:40:46.110Z,15.71
2022-09-15T16:43:17.713Z,15.67
2022-09-15T16:45:47.818Z,15.68
2022-09-15T16:48:18.685Z,15.71
2022-09-15T16:53:47.361Z,15.70
2022-09-15T16:56:18.319Z,15.73
2022-09-15T16:58:55.907Z,15.74
2022-09-15T17:01:29.340Z,15.52
2022-09-15T17:03:59.534Z,15.56
2022-09-15T17:06:31.405Z,15.36
2022-09-15T17:09:04.516Z,15.32
2022-09-15T17:11:34.666Z,15.29
2022-09-15T17:14:04.732Z,15.27
2022-09-15T17:16:36.560Z,15.15
2022-09-15T17:19:07.550Z,15.13
2022-09-15T17:21:38.382Z,15.12
2022-09-15T17:24:12.623Z,15.11
2022-09-15T17:26:43.517Z,15.13
2022-09-15T17:29:13.572Z,15.08
2022-09-15T17:31:44.407Z,15.03
2022-09-15T17:34:17.056Z,15.02
2022-09-15T17:36:47.351Z,14.97
2022-09-15T17:39:21.528Z,14.88
2022-09-15T17:41:51.567Z,14.83
2022-09-15T17:44:21.630Z,14.79
2022-09-15T17:46:51.423Z,14.69
2022-09-15T17:49:24.603Z,14.69
2022-09-15T17:51:54.950Z,14.60
2022-09-15T17:54:28.307Z,14.57
2022-09-15T17:57:01.171Z,14.54
2022-09-15T17:59:31.575Z,14.51
2022-09-15T18:02:02.285Z,14.52
2022-09-15T18:04:32.549Z,14.52
2022-09-15T18:09:51.401Z,14.55
2022-09-15T18:12:24.230Z,14.56
2022-09-15T18:14:54.488Z,14.62
2022-09-15T18:17:24.719Z,14.59
2022-09-15T18:19:54.643Z,14.61
2022-09-15T18:22:26.045Z,14.65
2022-09-15T18:25:01.949Z,14.64
2022-09-15T18:27:32.197Z,14.69
2022-09-15T18:30:02.477Z,14.69
2022-09-15T18:32:33.244Z,14.68
2022-09-15T18:35:03.333Z,14.66
2022-09-15T18:37:33.038Z,14.59
2022-09-15T18:40:07.430Z,14.53
2022-09-15T18:42:37.723Z,14.46
2022-09-15T18:45:12.326Z,14.44
2022-09-15T18:47:42.548Z,14.38
2022-09-15T18:50:14.813Z,14.40
2022-09-15T18:52:44.625Z,14.42
2022-09-15T18:55:19.925Z,14.47
2022-09-15T18:57:50.199Z,14.46
2022-09-15T19:00:24.613Z,14.47
2022-09-15T19:02:59.927Z,14.48
2022-09-15T19:05:30.447Z,14.44
2022-09-15T19:08:00.562Z,14.42
2022-09-15T19:10:32.976Z,14.42
2022-09-15T19:13:05.842Z,14.42
2022-09-15T19:15:36.544Z,14.41
2022-09-15T19:18:06.362Z,14.42
2022-09-15T19:20:35.892Z,14.42
2022-09-15T19:23:06.559Z,14.39
2022-09-15T19:25:39.569Z,14.40
2022-09-15T19:28:09.300Z,14.32
2022-09-15T19:30:39.309Z,14.21
2022-09-15T19:33:15.689Z,14.15
2022-09-15T19:35:46.295Z,14.05
2022-09-15T19:38:16.118Z,14.04
2022-09-15T19:40:50.022Z,13.95
2022-09-15T19:43:20.142Z,13.91
2022-09-15T19:45:50.553Z,13.88
2022-09-15T19:48:20.775Z,13.83
2022-09-15T19:50:51.347Z,13.80
2022-09-15T19:53:21.945Z,13.82
2022-09-15T19:55:55.739Z,13.97
2022-09-15T19:58:30.440Z,14.19
2022-09-15T20:01:00.961Z,14.25
2022-09-15T20:03:31.038Z,14.29
2022-09-15T20:06:00.772Z,14.32
2022-09-15T20:08:30.584Z,14.35
2022-09-15T20:11:03.363Z,14.34
2022-09-15T20:13:33.181Z,14.31
2022-09-15T20:16:05.562Z,14.29
2022-09-15T20:18:36.754Z,14.22
2022-09-15T20:21:10.410Z,14.18
2022-09-15T20:23:45.802Z,14.13
2022-09-15T20:26:20.425Z,14.12
2022-09-15T20:28:50.483Z,14.10
2022-09-15T20:31:23.338Z,14.12
2022-09-15T20:33:54.965Z,14.11
2022-09-15T20:36:28.704Z,14.12
2022-09-15T20:38:59.062Z,14.14
2022-09-15T20:41:32.125Z,14.17
2022-09-15T20:44:02.293Z,14.25
2022-09-15T20:46:32.290Z,14.24
2022-09-15T20:49:01.961Z,14.25
2022-09-15T20:51:33.968Z,14.24
2022-09-15T20:54:05.748Z,14.17
2022-09-15T20:56:39.404Z,14.12
2022-09-15T20:59:10.730Z,14.06
2022-09-15T21:01:43.552Z,13.99
2022-09-15T21:04:13.854Z,13.97
2022-09-15T21:06:43.726Z,14.00
2022-09-15T21:09:14.224Z,13.97
2022-09-15T21:11:49.124Z,13.96
2022-09-15T21:14:23.285Z,13.98
2022-09-15T21:16:53.847Z,14.03
2022-09-15T21:19:24.171Z,14.04
2022-09-15T21:21:55.073Z,14.00
2022-09-15T21:24:25.059Z,14.00
2022-09-15T21:27:09.818Z,13.95
2022-09-15T21:29:39.596Z,13.90
2022-09-15T21:32:09.623Z,13.78
2022-09-15T21:34:39.572Z,13.68
2022-09-15T21:37:09.984Z,13.58
2022-09-15T21:39:39.699Z,13.49
2022-09-15T21:42:13.211Z,13.46
2022-09-15T21:44:42.834Z,13.41
2022-09-15T21:47:12.526Z,13.41
2022-09-15T21:49:42.450Z,13.35
2022-09-15T21:52:12.390Z,13.27
2022-09-15T21:54:43.401Z,13.31
2022-09-15T21:57:16.109Z,13.20
2022-09-15T21:59:45.811Z,13.09
2022-09-15T22:02:17.349Z,13.09
2022-09-15T22:04:47.248Z,13.10
2022-09-15T22:07:19.946Z,13.07
2022-09-15T22:09:50.315Z,13.08
2022-09-15T22:12:23.254Z,13.15
2022-09-15T22:14:53.606Z,13.13
2022-09-15T22:17:23.873Z,13.14
2022-09-15T22:19:53.750Z,13.12
2022-09-15T22:22:23.863Z,13.07
2022-09-15T22:24:53.648Z,13.10
2022-09-15T22:27:26.892Z,13.02
2022-09-15T22:29:57.174Z,13.00
2022-09-15T22:32:27.436Z,13.01
2022-09-15T22:34:57.562Z,13.01
2022-09-15T22:37:30.569Z,13.01
2022-09-15T22:40:00.322Z,12.96
2022-09-15T22:42:32.916Z,12.93
2022-09-15T22:45:02.639Z,12.91
2022-09-15T22:47:32.459Z,12.88
2022-09-15T22:50:02.206Z,12.81
2022-09-15T22:52:31.934Z,12.76
2022-09-15T22:55:02.069Z,12.66
2022-09-15T22:57:37.352Z,12.58
2022-09-15T23:00:07.729Z,12.52
2022-09-15T23:02:37.774Z,12.46
2022-09-15T23:05:09.256Z,12.43
2022-09-15T23:07:39.078Z,12.36
2022-09-15T23:10:09.323Z,12.32
2022-09-15T23:12:41.666Z,12.27
2022-09-15T23:15:12.454Z,12.24
2022-09-15T23:17:42.420Z,12.18
2022-09-15T23:20:12.684Z,12.15
2022-09-15T23:22:42.526Z,12.07
2022-09-15T23:25:12.929Z,12.02
2022-09-15T23:27:45.518Z,11.98
2022-09-15T23:30:16.460Z,11.93
2022-09-15T23:32:46.069Z,11.88
2022-09-15T23:35:15.837Z,11.84
2022-09-15T23:37:45.353Z,11.79
2022-09-15T23:40:15.386Z,11.77
2022-09-15T23:42:47.970Z,11.73
2022-09-15T23:45:18.239Z,11.69
2022-09-15T23:47:47.854Z,11.67
2022-09-15T23:50:17.619Z,11.64
2022-09-15T23:52:47.606Z,11.67
2022-09-15T23:55:17.783Z,11.69
2022-09-15T23:57:50.696Z,11.78
